ADDS METAR Data INFO
IDs: Format: Raw Decoded Include TAF

Data at: 1716 UTC 23 Oct 2017

KDVL 231656Z AUTO 31018KT 10SM FEW019 08/02 A2998 RMK AO2 PK WND 31026/1611 SLP174 T00780022
KDVL 231643Z AUTO 31017KT 10SM SCT019 08/03 A2998 RMK AO2 PK WND 31026/1611
KDVL 231556Z AUTO 32019KT 10SM BKN015 06/03 A2997 RMK AO2 SLP172 T00610028
KDVL 231456Z AUTO 30017G22KT 10SM CLR 06/03 A2995 RMK AO2 SLP163 60000 T00560033 51039
KDVL 231356Z AUTO 30015KT 10SM FEW070 SCT090 05/03 A2991 RMK AO2 SLP155 T00500033
KDVL 231256Z AUTO 32016KT 10SM SCT055 OVC070 05/03 A2988 RMK AO2 RAE14 SLP142 P0000 T00500033
KDVL 231231Z AUTO 33018G21KT 10SM SCT010 SCT043 OVC050 06/04 A2986 RMK AO2 RAE14 P0000
KDVL 231211Z AUTO 33019G22KT 10SM -RA OVC010 06/04 A2984 RMK AO2 CIG 006V013 P0000
KDVL 231156Z AUTO 33021G26KT 8SM -RA OVC008 06/04 A2983 RMK AO2 PK WND 33029/1123 RAB05 CIG 006V011 SLP122 P0001 60001 70001 T00560044 10128 20056 53037
KDVL 231148Z AUTO 33019G23KT 5SM -RA BR OVC008 06/04 A2982 RMK AO2 PK WND 33029/1123 RAB05 CIG 006V012 P0000
KDVL 231056Z AUTO 31021G29KT 10SM OVC014 06/04 A2976 RMK AO2 PK WND 30031/1040 SLP096 T00610039
KDVL 231051Z AUTO 31024G29KT 10SM OVC014 06/03 A2975 RMK AO2 PK WND 30031/1040
KDVL 231016Z AUTO 30022G29KT 10SM BKN016 BKN025 06/03 A2973 RMK AO2 PK WND 29029/1010
KDVL 230956Z AUTO 29022G28KT 10SM CLR 06/02 A2971 RMK AO2 PK WND 29030/0946 SLP082 T00560022
KDVL 230856Z AUTO 29021G26KT 10SM CLR 08/02 A2969 RMK AO2 PK WND 29029/0835 SLP072 T00780022 51028
KDVL 230756Z AUTO 28014KT 10SM CLR 09/02 A2966 RMK AO2 SLP062 T00890022
KDVL 230656Z AUTO 28018G23KT 10SM CLR 11/02 A2963 RMK AO2 PK WND 28028/0633 SLP049 T01060022
KDVL 230556Z AUTO 28019G25KT 10SM SCT075 BKN090 OVC100 13/04 A2960 RMK AO2 PK WND 27030/0534 SLP039 60000 T01280039 10133 20072 53006
KDVL 230456Z AUTO 25016KT 10SM CLR 12/06 A2958 RMK AO2 SLP033 T01220056 401440039
KDVL 230356Z AUTO 24015G19KT 10SM SCT080 12/04 A2957 RMK AO2 RAE07 SLP034 P0000 T01220039
KDVL 230256Z AUTO 18010KT 10SM -RA SCT075 BKN100 12/03 A2958 RMK AO2 RAB26 SLP038 P0000 60000 T01170033 58018
KDVL 230156Z AUTO 13003KT 10SM FEW100 07/04 A2960 RMK AO2 SLP048 T00720039
KDVL 230056Z AUTO 20007KT 10SM SCT070 11/06 A2963 RMK AO2 SLP055 T01110061
KDVL 222356Z AUTO 23011KT 10SM SCT055 OVC070 12/05 A2964 RMK AO2 RAE27 SLP056 P0000 60000 T01220050 10144 20122 55005
KDVL 222256Z AUTO 24015KT 10SM -RA BKN055 BKN070 OVC080 13/04 A2963 RMK AO2 RAB43 SLP054 P0000 T01330039
KDVL 222156Z AUTO 22020G28KT 10SM SCT055 BKN095 14/03 A2963 RMK AO2 PK WND 21028/2154 SLP054 T01390028
KDVL 222056Z AUTO 23012G21KT 10SM FEW070 13/01 A2965 RMK AO2 PK WND 23031/2029 SLP061 T01330011 56028
KDVL 221956Z AUTO 23016KT 10SM FEW055 SCT070 14/M01 A2968 RMK AO2 SLP071 T01391006
KDVL 221856Z AUTO 22016KT 10SM CLR 13/00 A2970 RMK AO2 SLP077 T01330000
KDVL 221756Z AUTO 21014KT 10SM CLR 13/00 A2974 RMK AO2 SLP090 T01330000 10133 20039 58020
KDVL 221656Z AUTO 21012KT 10SM CLR 11/00 A2976 RMK AO2 SLP098 T01060000
KDVL 221556Z AUTO 21012KT 10SM CLR 08/01 A2979 RMK AO2 SLP111 T00780006
KDVL 221456Z AUTO 23010KT 10SM CLR 06/01 A2980 RMK AO2 SLP115 T00610011 51011
KDVL 221356Z AUTO 24010KT 10SM CLR 04/01 A2979 RMK AO2 SLP113 T00440006
KDVL 221256Z AUTO 25014KT 10SM CLR 04/00 A2978 RMK AO2 SLP108 T00390000
KDVL 221156Z AUTO 26017KT 10SM CLR 05/01 A2977 RMK AO2 SLP103 T00500006 10078 20044 51007
KDVL 221056Z AUTO 25016KT 10SM CLR 05/01 A2976 RMK AO2 SLP103 T00500011
KDVL 220956Z AUTO 25015KT 10SM CLR 05/01 A2975 RMK AO2 SLP099 T00500011
KDVL 220856Z AUTO 25015KT 10SM CLR 06/02 A2974 RMK AO2 SLP095 T00560017 51020
KDVL 220756Z AUTO 26017KT 10SM CLR 07/02 A2973 RMK AO2 SLP088 T00670017
KDVL 220656Z AUTO 27016KT 10SM CLR 07/02 A2971 RMK AO2 SLP083 T00670022
KDVL 220556Z AUTO 26014KT 10SM BKN044 07/03 A2968 RMK AO2 SLP071 T00720033 10094 20067 51008